Terminal Aerodrome Forecast
Issued by NWS

Home | Current Version | Previous Version | Text Only | Print | Product List | Glossary On
Versions: 1 2 3 4 5 6 7 8 9 10 11 12 13 14 15 16 17 18 19 20 21
000
FTUS43 KBIS 281100
TAFJMS
TAF
KJMS 281138Z 2812/2912 04009KT P6SM VCSH SCT018 OVC090
     FM281600 04007KT P6SM FEW011 SCT080
     FM281800 03009KT P6SM FEW090 SCT250
     FM290000 36007KT P6SM SCT250=

USA.gov is the U.S. government's official web portal to all federal, state and local government web resources and services.